METAR AND TAF INFORMATION
METAR FOR LGPZ
ADDS - METARS form results

(1118 UTC 23 February 2020)
Data provider http://aviationweather.gov/metar/data/
 
METAR text: LGPZ 231050Z 00000KT CAVOK 14/M02 Q1026 RMK SCT180 BLU
Conditions at: LGPZ (PREVEZA/AKTION , GR) observed 1050 UTC 23 February 2020
Temperature: 14.0°C (57°F)
Dewpoint: -2.0°C (28°F) [RH = 33%]
Pressure (altimeter): 30.30 inches Hg (1026.0 mb)
Winds: calm
Visibility: 6 or more miles (10+ km)
Ceiling: ceiling and visibility are OK
Clouds: unknown
Weather: no significant weather observed at this time

METAR text: LGPZ 231020Z 00000KT CAVOK 13/M03 Q1026
Conditions at: LGPZ (PREVEZA/AKTION , GR) observed 1020 UTC 23 February 2020
Temperature: 13.0°C (55°F)
Dewpoint: -3.0°C (27°F) [RH = 33%]
Pressure (altimeter): 30.30 inches Hg (1026.0 mb)
Winds: calm
Visibility: 6 or more miles (10+ km)
Ceiling: ceiling and visibility are OK
Clouds: unknown
Weather: no significant weather observed at this time

Forecast for: LGPZ (PREVEZA/AKTION , GR)
Text: TAF LGPZ 231100Z 2312/2412 06010KT 9999 FEW025
Forecast period: 1200 UTC 23 February 2020 to 1200 UTC 24 February 2020
Forecast type: FROM: standard forecast or significant change
Winds: from the ENE (60 degrees) at 12 MPH (10 knots; 5.1 m/s)
Visibility: 6 or more miles 10+ km)
Ceiling: at least 12,000 feet AGL
Clouds: few clouds at 2500 feet AGL
Weather: no significant weather forecast for this period
Text: BECMG 2312/2314 27010KT
Forecast period: 1200 UTC 23 February 2020 to 1200 UTC 24 February 2020
Forecast type: BECOMING: Conditions expected to become as follows by 1400 UTC 23 February 2020
Winds: from the W (270 degrees) at 12 MPH (10 knots; 5.1 m/s)
Visibility: 6 or more miles 10+ km)
Ceiling: at least 12,000 feet AGL
Clouds: few clouds at 2500 feet AGL
Weather: no significant weather forecast for this period

 AIRPORT MAP

 RUNWAY INFORMATION
Runway 07L Runway length 9419 ft Runway width 148 ft
Runway elevation 9 ft Runway displaced threshold 0 ft Runway heading 68
Runway 25R Runway length 9419 ft Runway width 148 ft
Runway elevation 11 ft Runway displaced threshold 492 ft Runway heading 248

 AIRPORT FREQUENCIES
Type A/G Name RDO Frequency 563.7 MHZ
Type APP Name APP Frequency 120.45 MHZ
Type TWR Name TWR Frequency 120.45 MHZ

 AIRPORT NEAR NAVIGATION AIDS
Type NDB Name Preveza Frequency 353 KHZ



Powered by Heron Airways VA. All Rights Reserved © 2009 [v2.6.2]